Piety Hill, Illinois
Current Conditions -  °F | °C
As of 12:15 AM on Tuesday 21 Oct 2014 (Local Time) from KVYS Reporting Station
Scattered Clouds Scattered Clouds  
Wind Chill: 43°   Ceiling: Unl
Heat Index: 46°   Visibility: 10mi
Dew Point: 39°   Wind: 5mph
Humidity: 79%   Direction: 360°N
Pressure: 30.02"   Gusts: NA
Location:  41.2837°N, 89.0395°W
Report Text: KVYS 210515Z AUTO 36004KT 10SM SCT050 08/04 A3002 RMK AO2 T00760041
Loading
Personal Weather Stations






























Interactive Weather Map
Tropical Storm Tracking
New forecast layout! Learn more

10-Day Weather Forecast

Advertisements
Track Severe Weather on mobile